createdAt,value
2023-04-28T00:01:00.558Z,176.98
2023-04-28T00:01:59.564Z,177.84
2023-04-28T00:02:59.721Z,178.40
2023-04-28T00:03:59.812Z,175.51
2023-04-28T00:04:59.700Z,174.22
2023-04-28T00:05:59.741Z,175.43
2023-04-28T00:06:59.688Z,174.99
2023-04-28T00:07:59.705Z,176.29
2023-04-28T00:08:59.739Z,175.28
2023-04-28T00:09:59.810Z,176.70
2023-04-28T00:10:59.793Z,174.93
2023-04-28T00:11:59.798Z,174.74
2023-04-28T00:12:59.845Z,176.38
2023-04-28T00:13:59.831Z,175.68
2023-04-28T00:15:00.155Z,174.16
2023-04-28T00:15:59.954Z,175.54
2023-04-28T00:16:59.904Z,173.89
2023-04-28T00:17:59.984Z,174.40
2023-04-28T00:18:59.972Z,173.96
2023-04-28T00:20:00.009Z,173.83
2023-04-28T00:21:00.026Z,174.76
2023-04-28T00:22:00.031Z,174.36
2023-04-28T00:23:00.069Z,172.95
2023-04-28T00:24:00.066Z,174.31
2023-04-28T00:25:00.169Z,173.45
2023-04-28T00:26:00.156Z,172.99
2023-04-28T00:27:00.154Z,171.65
2023-04-28T00:28:00.181Z,173.45
2023-04-28T00:29:00.220Z,173.14
2023-04-28T00:30:00.652Z,172.80
2023-04-28T00:31:00.230Z,171.36
2023-04-28T00:32:00.368Z,172.00
2023-04-28T00:33:00.412Z,172.24
2023-04-28T00:34:00.282Z,171.13
2023-04-28T00:35:00.330Z,171.66
2023-04-28T00:36:00.337Z,171.64
2023-04-28T00:37:00.385Z,173.08
2023-04-28T00:38:00.396Z,170.97
2023-04-28T00:39:00.419Z,172.06
2023-04-28T00:40:00.468Z,172.70
2023-04-28T00:41:00.658Z,170.08
2023-04-28T00:42:00.530Z,171.83
2023-04-28T00:43:00.572Z,170.45
2023-04-28T00:44:00.553Z,171.29
2023-04-28T00:45:00.693Z,170.21
2023-04-28T00:46:00.687Z,171.41
2023-04-28T00:47:00.640Z,170.59
2023-04-28T00:48:00.683Z,169.84
2023-04-28T00:49:00.701Z,169.95
2023-04-28T00:50:00.786Z,169.33
2023-04-28T00:51:01.158Z,170.98
2023-04-28T00:52:00.787Z,169.43
2023-04-28T00:53:00.844Z,170.81
2023-04-28T00:54:00.852Z,169.09
2023-04-28T00:55:00.869Z,169.25
2023-04-28T00:56:00.930Z,168.39
2023-04-28T00:57:00.927Z,167.36
2023-04-28T00:58:00.960Z,168.91
2023-04-28T00:59:01.014Z,169.62
2023-04-28T01:00:01.040Z,170.16
2023-04-28T01:01:01.126Z,169.58
2023-04-28T01:02:01.102Z,169.92
2023-04-28T01:03:01.423Z,168.84
2023-04-28T01:04:01.338Z,169.53
2023-04-28T01:05:01.185Z,169.21
2023-04-28T01:06:01.643Z,166.61
2023-04-28T01:07:01.203Z,169.64
2023-04-28T01:08:01.252Z,169.45
2023-04-28T01:09:01.265Z,169.25
2023-04-28T01:10:01.309Z,169.30
2023-04-28T01:11:01.338Z,168.80
2023-04-28T01:12:01.335Z,167.04
2023-04-28T01:13:01.377Z,168.09
2023-04-28T01:14:01.425Z,168.16
2023-04-28T01:15:01.476Z,168.24
2023-04-28T01:16:01.488Z,166.27
2023-04-28T01:17:01.757Z,168.93
2023-04-28T01:18:01.564Z,168.50
2023-04-28T01:19:01.520Z,167.56
2023-04-28T01:20:01.572Z,167.64
2023-04-28T01:21:01.616Z,166.76
2023-04-28T01:22:01.667Z,166.62
2023-04-28T01:23:01.651Z,167.34
2023-04-28T01:24:01.735Z,167.36
2023-04-28T01:25:01.702Z,165.39
2023-04-28T01:26:02.142Z,166.46
2023-04-28T01:27:01.770Z,166.19
2023-04-28T01:28:01.817Z,164.88
2023-04-28T01:29:01.852Z,166.21
2023-04-28T01:30:01.902Z,164.12
2023-04-28T01:31:01.895Z,164.04
2023-04-28T01:32:02.062Z,166.90
2023-04-28T01:33:01.975Z,165.82
2023-04-28T01:34:01.977Z,165.98
2023-04-28T01:35:01.983Z,164.95
2023-04-28T01:36:02.016Z,163.43
2023-04-28T01:37:02.069Z,164.85
2023-04-28T01:38:02.109Z,165.18
2023-04-28T01:39:02.111Z,166.74
2023-04-28T01:40:02.172Z,163.55
2023-04-28T01:41:02.202Z,165.91
2023-04-28T01:42:02.214Z,164.11
2023-04-28T01:43:02.195Z,164.69
2023-04-28T01:44:02.286Z,163.17
2023-04-28T01:45:02.262Z,165.12
2023-04-28T01:46:02.355Z,165.31
2023-04-28T01:47:02.329Z,163.82
2023-04-28T01:48:02.406Z,164.28
2023-04-28T01:49:02.411Z,162.58
2023-04-28T01:50:02.426Z,165.35
2023-04-28T01:51:02.453Z,163.86
2023-04-28T01:52:02.480Z,163.49
2023-04-28T01:53:02.514Z,162.45
2023-04-28T01:54:02.505Z,162.75
2023-04-28T01:55:02.573Z,163.43
2023-04-28T01:56:02.600Z,163.50
2023-04-28T01:57:02.623Z,163.45
2023-04-28T01:58:02.614Z,163.56
2023-04-28T01:59:02.678Z,161.84
2023-04-28T02:00:02.687Z,161.11
2023-04-28T02:01:02.737Z,161.79
2023-04-28T02:02:02.867Z,160.46
2023-04-28T02:03:02.833Z,157.76
2023-04-28T02:04:02.922Z,161.30
2023-04-28T02:05:02.835Z,159.53
2023-04-28T02:06:02.909Z,160.19
2023-04-28T02:07:02.927Z,158.88
2023-04-28T02:08:02.946Z,159.64
2023-04-28T02:09:03.002Z,159.82
2023-04-28T02:10:03.090Z,158.68
2023-04-28T02:11:03.064Z,160.20
2023-04-28T02:12:03.081Z,160.61
2023-04-28T02:13:03.114Z,158.28
2023-04-28T02:14:03.136Z,157.93
2023-04-28T02:15:03.169Z,160.19
2023-04-28T02:16:03.730Z,159.27
2023-04-28T02:17:03.258Z,157.48
2023-04-28T02:18:03.317Z,158.61
2023-04-28T02:19:03.302Z,157.10
2023-04-28T02:20:03.367Z,158.41
2023-04-28T02:21:03.368Z,157.45
2023-04-28T02:22:03.409Z,158.61
2023-04-28T02:23:03.411Z,157.70
2023-04-28T02:24:03.452Z,158.37
2023-04-28T02:25:03.503Z,158.99
2023-04-28T02:26:03.494Z,155.30
2023-04-28T02:27:03.533Z,156.40
2023-04-28T02:28:03.579Z,158.23
2023-04-28T02:29:03.624Z,158.23
2023-04-28T02:30:03.639Z,156.62
2023-04-28T02:31:03.703Z,159.34
2023-04-28T02:32:03.714Z,158.79
2023-04-28T02:33:03.734Z,155.08
2023-04-28T02:34:03.765Z,155.10
2023-04-28T02:35:03.808Z,156.25
2023-04-28T02:36:03.849Z,156.32
2023-04-28T02:37:03.838Z,157.58
2023-04-28T02:38:03.880Z,156.79
2023-04-28T02:39:03.927Z,154.86
2023-04-28T02:40:03.936Z,154.13
2023-04-28T02:41:03.991Z,156.79
2023-04-28T02:42:04.009Z,156.13
2023-04-28T02:43:04.029Z,156.96
2023-04-28T02:44:04.076Z,155.86
2023-04-28T02:45:04.150Z,154.97
2023-04-28T02:46:04.119Z,156.48
2023-04-28T02:47:04.195Z,155.53
2023-04-28T02:48:04.224Z,155.24
2023-04-28T02:49:04.269Z,154.83
2023-04-28T02:50:04.322Z,153.86
2023-04-28T02:51:04.299Z,156.50
2023-04-28T02:52:04.294Z,153.56
2023-04-28T02:53:04.346Z,153.51
2023-04-28T02:54:04.365Z,154.14
2023-04-28T02:55:04.378Z,154.69
2023-04-28T02:56:04.478Z,154.40
2023-04-28T02:57:04.463Z,155.59
2023-04-28T02:58:04.526Z,155.21
2023-04-28T02:59:04.547Z,153.83
2023-04-28T03:00:04.577Z,154.92
2023-04-28T03:01:04.628Z,153.22
2023-04-28T03:02:04.625Z,155.73
2023-04-28T03:03:04.808Z,154.56
2023-04-28T03:04:04.791Z,154.41
2023-04-28T03:05:04.780Z,153.11
2023-04-28T03:06:04.806Z,151.77
2023-04-28T03:07:04.801Z,152.69
2023-04-28T03:08:04.850Z,152.44
2023-04-28T03:09:04.888Z,153.57
2023-04-28T03:10:04.976Z,152.93
2023-04-28T03:11:05.225Z,152.96
2023-04-28T03:12:04.980Z,153.69
2023-04-28T03:13:05.065Z,152.37
2023-04-28T03:14:05.122Z,154.47
2023-04-28T03:15:05.118Z,153.34
2023-04-28T03:16:05.151Z,152.02
2023-04-28T03:17:05.143Z,152.98
2023-04-28T03:18:05.257Z,153.13
2023-04-28T03:19:05.233Z,152.72
2023-04-28T03:20:05.288Z,152.86
2023-04-28T03:21:05.341Z,152.83
2023-04-28T03:22:05.362Z,152.42
2023-04-28T03:23:05.381Z,153.62
2023-04-28T03:24:05.852Z,150.76
2023-04-28T03:25:05.470Z,151.07
2023-04-28T03:26:05.489Z,152.21
2023-04-28T03:27:05.551Z,151.36
2023-04-28T03:28:05.583Z,151.30
2023-04-28T03:29:05.600Z,151.09
2023-04-28T03:30:05.659Z,151.59
2023-04-28T03:31:05.739Z,151.84
2023-04-28T03:32:05.810Z,152.11
2023-04-28T03:33:05.821Z,153.05
2023-04-28T03:34:05.830Z,152.35
2023-04-28T03:35:05.837Z,151.24
2023-04-28T03:36:05.875Z,149.77
2023-04-28T03:37:05.896Z,152.53
2023-04-28T03:38:05.997Z,150.65
2023-04-28T03:39:06.053Z,149.39
2023-04-28T03:40:06.055Z,150.25
2023-04-28T03:41:06.112Z,147.63
2023-04-28T03:42:06.195Z,149.74
2023-04-28T03:43:06.194Z,150.38
2023-04-28T03:44:06.221Z,149.41
2023-04-28T03:45:06.262Z,151.12
2023-04-28T03:46:06.331Z,150.00
2023-04-28T03:47:06.359Z,150.78
2023-04-28T03:48:06.408Z,150.02
2023-04-28T03:49:06.401Z,149.58
2023-04-28T03:50:06.465Z,149.58
2023-04-28T03:51:06.525Z,148.89
2023-04-28T03:52:06.534Z,148.07
2023-04-28T03:53:06.594Z,149.18
2023-04-28T03:54:06.610Z,146.96
2023-04-28T03:55:06.692Z,149.57
2023-04-28T03:56:07.248Z,150.11
2023-04-28T03:57:06.775Z,149.09
2023-04-28T03:58:06.805Z,148.24
2023-04-28T03:59:06.881Z,146.99
2023-04-28T04:00:06.897Z,148.99
2023-04-28T04:01:06.934Z,148.95
2023-04-28T04:02:07.028Z,150.60
2023-04-28T04:03:07.138Z,148.65
2023-04-28T04:04:07.267Z,149.76
2023-04-28T04:05:07.355Z,146.73
2023-04-28T04:06:07.211Z,147.37
2023-04-28T04:07:07.181Z,148.17
2023-04-28T04:08:07.205Z,146.94
2023-04-28T04:09:07.255Z,146.44
2023-04-28T04:10:07.312Z,148.21
2023-04-28T04:11:07.735Z,146.57
2023-04-28T04:12:07.362Z,147.59
2023-04-28T04:13:07.415Z,146.13
2023-04-28T04:14:07.466Z,145.72
2023-04-28T04:15:07.492Z,146.16
2023-04-28T04:16:07.914Z,146.02
2023-04-28T04:17:07.583Z,146.74
2023-04-28T04:18:07.707Z,146.57
2023-04-28T04:19:07.643Z,146.91
2023-04-28T04:20:07.705Z,148.05
2023-04-28T04:21:08.213Z,145.97
2023-04-28T04:22:07.792Z,145.21
2023-04-28T04:23:07.822Z,145.11
2023-04-28T04:24:07.882Z,145.54
2023-04-28T04:25:07.921Z,145.01
2023-04-28T04:26:07.939Z,145.48
2023-04-28T04:27:08.032Z,142.60
2023-04-28T04:28:08.013Z,145.55
2023-04-28T04:29:08.088Z,144.55
2023-04-28T04:30:08.122Z,146.25
2023-04-28T04:31:08.197Z,145.17
2023-04-28T04:32:08.171Z,145.53
2023-04-28T04:33:08.230Z,144.25
2023-04-28T04:34:08.279Z,144.71
2023-04-28T04:35:08.343Z,144.35
2023-04-28T04:36:08.371Z,145.99
2023-04-28T04:37:08.432Z,144.83
2023-04-28T04:38:08.445Z,143.85
2023-04-28T04:39:08.475Z,143.69
2023-04-28T04:40:08.539Z,144.76
2023-04-28T04:41:08.619Z,142.66
2023-04-28T04:42:23.356Z,145.51
2023-04-28T04:43:09.640Z,145.55
2023-04-28T04:44:08.604Z,141.85
2023-04-28T04:45:08.600Z,145.56
2023-04-28T04:46:08.750Z,144.00
2023-04-28T04:47:08.573Z,144.47
2023-04-28T04:48:08.625Z,143.30
2023-04-28T04:49:08.593Z,144.88
2023-04-28T04:50:08.585Z,142.97
2023-04-28T04:51:08.574Z,143.57
2023-04-28T04:52:08.615Z,141.81
2023-04-28T04:53:12.166Z,141.74
2023-04-28T04:54:09.554Z,141.91
2023-04-28T04:55:08.543Z,142.08
2023-04-28T04:56:08.531Z,142.27
2023-04-28T04:57:08.519Z,142.27
2023-04-28T04:58:08.533Z,141.11
2023-04-28T04:59:08.501Z,142.53
2023-04-28T05:00:08.507Z,141.40
2023-04-28T05:01:08.499Z,139.57
2023-04-28T05:02:08.823Z,144.06
2023-04-28T05:03:08.535Z,142.70
2023-04-28T05:04:08.728Z,142.01
2023-04-28T05:05:20.323Z,140.13
2023-04-28T05:06:09.584Z,140.31
2023-04-28T05:07:08.540Z,140.72
2023-04-28T05:08:08.556Z,141.01
2023-04-28T05:09:08.527Z,141.07
2023-04-28T05:10:08.547Z,140.66
2023-04-28T05:11:08.548Z,140.30
2023-04-28T05:12:08.525Z,141.26
2023-04-28T05:13:08.511Z,140.13
2023-04-28T05:14:08.506Z,138.32
2023-04-28T05:15:08.491Z,140.30
2023-04-28T05:16:08.561Z,139.40
2023-04-28T05:17:08.588Z,140.05
2023-04-28T05:18:08.818Z,138.61
2023-04-28T05:19:08.680Z,139.18
2023-04-28T05:20:08.713Z,139.36
2023-04-28T05:21:08.751Z,138.25
2023-04-28T05:22:08.818Z,138.88
2023-04-28T05:23:08.884Z,138.28
2023-04-28T05:24:08.922Z,138.58
2023-04-28T05:25:08.997Z,136.67
2023-04-28T05:26:09.035Z,138.94
2023-04-28T05:27:09.090Z,138.58
2023-04-28T05:28:09.126Z,138.58
2023-04-28T05:29:09.156Z,138.68
2023-04-28T05:30:09.254Z,137.35
2023-04-28T05:31:09.256Z,138.42
2023-04-28T05:32:09.797Z,139.58
2023-04-28T05:33:09.388Z,139.34
2023-04-28T05:34:09.410Z,139.13
2023-04-28T05:35:09.478Z,136.15
2023-04-28T05:36:09.494Z,137.68
2023-04-28T05:37:09.750Z,138.29
2023-04-28T05:38:09.611Z,136.72
2023-04-28T05:39:09.667Z,138.85
2023-04-28T05:40:09.704Z,137.27
2023-04-28T05:41:09.752Z,137.65
2023-04-28T05:42:09.818Z,136.54
2023-04-28T05:43:09.827Z,137.47
2023-04-28T05:44:09.916Z,138.85
2023-04-28T05:45:09.909Z,138.76
2023-04-28T05:46:28.318Z,138.73
2023-04-28T05:47:10.998Z,138.82
2023-04-28T05:48:10.000Z,138.78
2023-04-28T05:49:09.979Z,138.87
2023-04-28T05:50:09.991Z,142.07
2023-04-28T05:51:09.969Z,148.80
2023-04-28T05:52:09.957Z,162.53
2023-04-28T05:53:09.918Z,186.72
2023-04-28T05:54:09.968Z,151.31
2023-04-28T05:55:09.934Z,118.32
2023-04-28T05:56:09.925Z,123.11
2023-04-28T05:57:10.279Z,122.62
2023-04-28T05:58:10.004Z,125.00
2023-04-28T05:59:10.041Z,111.30
2023-04-28T06:00:10.054Z,97.27
2023-04-28T06:01:10.049Z,99.01
2023-04-28T06:02:10.360Z,97.90
2023-04-28T06:03:10.300Z,100.29
2023-04-28T06:04:10.337Z,119.00
2023-04-28T06:05:10.279Z,116.37
2023-04-28T06:06:10.502Z,120.67
2023-04-28T06:07:10.267Z,148.72
2023-04-28T06:08:10.168Z,160.76
2023-04-28T06:09:10.174Z,161.87
2023-04-28T06:10:10.236Z,173.40
2023-04-28T06:11:10.298Z,181.89
2023-04-28T06:12:10.334Z,188.64
2023-04-28T06:13:11.392Z,197.72
2023-04-28T06:14:10.461Z,202.46
2023-04-28T06:15:10.497Z,212.79
2023-04-28T06:16:10.613Z,219.85
2023-04-28T06:17:10.651Z,227.86
2023-04-28T06:18:10.784Z,233.58
2023-04-28T06:19:10.707Z,236.08
2023-04-28T06:20:10.777Z,245.59
2023-04-28T06:21:10.740Z,250.00
2023-04-28T06:22:10.791Z,249.02
2023-04-28T06:23:10.799Z,248.95
2023-04-28T06:24:10.808Z,250.00
2023-04-28T06:25:10.852Z,250.00
2023-04-28T06:26:10.814Z,249.75
2023-04-28T06:27:11.278Z,250.00
2023-04-28T06:28:10.850Z,248.27
2023-04-28T06:29:10.837Z,250.00
2023-04-28T06:30:10.843Z,249.92
2023-04-28T06:31:10.871Z,249.97
2023-04-28T06:32:11.302Z,250.00
2023-04-28T06:33:10.832Z,250.00
2023-04-28T06:34:10.871Z,249.38
2023-04-28T06:35:10.887Z,250.30
2023-04-28T06:36:10.984Z,250.00
2023-04-28T06:37:10.985Z,249.61
2023-04-28T06:38:11.118Z,250.00
2023-04-28T06:39:11.165Z,249.85
2023-04-28T06:40:11.189Z,250.00
2023-04-28T06:41:11.329Z,250.00
2023-04-28T06:42:11.301Z,249.55
2023-04-28T06:43:11.371Z,249.21
2023-04-28T06:44:11.396Z,249.66
2023-04-28T06:45:11.468Z,250.00
2023-04-28T06:46:11.580Z,249.13
2023-04-28T06:47:11.567Z,249.65
2023-04-28T06:48:11.649Z,249.46
2023-04-28T06:49:11.660Z,250.00
2023-04-28T06:50:11.703Z,249.65
2023-04-28T06:51:11.722Z,248.32
2023-04-28T06:52:11.819Z,238.09
2023-04-28T06:53:11.828Z,229.90
2023-04-28T06:54:11.827Z,228.43
2023-04-28T06:55:11.936Z,224.58
2023-04-28T06:56:12.052Z,211.05
2023-04-28T06:57:12.053Z,189.19
2023-04-28T06:58:12.090Z,185.30
2023-04-28T06:59:12.092Z,174.71
2023-04-28T07:00:12.119Z,159.83
2023-04-28T07:01:12.148Z,151.99
2023-04-28T07:02:12.150Z,147.46
2023-04-28T07:03:12.240Z,140.21
2023-04-28T07:04:12.184Z,135.56
2023-04-28T07:05:13.586Z,132.48
2023-04-28T07:06:12.284Z,125.77
2023-04-28T07:07:12.350Z,122.62
2023-04-28T07:08:12.351Z,119.70
2023-04-28T07:09:12.306Z,115.68
2023-04-28T07:10:12.351Z,111.72
2023-04-28T07:11:12.366Z,108.75
2023-04-28T07:12:12.408Z,107.27
2023-04-28T07:13:12.469Z,103.90
2023-04-28T07:14:12.486Z,101.98
2023-04-28T07:15:12.943Z,98.80
2023-04-28T07:16:12.536Z,97.14
2023-04-28T07:17:12.560Z,98.08
2023-04-28T07:18:12.665Z,96.44
2023-04-28T07:19:12.687Z,94.87
2023-04-28T07:20:12.703Z,94.05
2023-04-28T07:21:12.778Z,94.80
2023-04-28T07:22:12.796Z,96.90
2023-04-28T07:23:12.846Z,95.24
2023-04-28T07:24:12.886Z,95.01
2023-04-28T07:25:12.971Z,93.22
2023-04-28T07:26:14.757Z,90.42
2023-04-28T07:27:13.036Z,89.40
2023-04-28T07:28:13.120Z,90.88
2023-04-28T07:29:13.213Z,87.94
2023-04-28T07:30:26.729Z,85.69
2023-04-28T07:31:14.252Z,85.74
2023-04-28T07:32:13.395Z,84.05
2023-04-28T07:33:13.285Z,83.68
2023-04-28T07:34:13.211Z,83.13
2023-04-28T07:35:13.202Z,81.58
2023-04-28T07:36:13.227Z,83.16
2023-04-28T07:37:13.209Z,80.94
2023-04-28T07:38:13.275Z,81.16
2023-04-28T07:39:13.233Z,81.92
2023-04-28T07:40:13.211Z,81.57
2023-04-28T07:41:13.244Z,79.90
2023-04-28T07:42:13.337Z,80.72
2023-04-28T07:43:13.354Z,79.78
2023-04-28T07:44:13.466Z,78.34
2023-04-28T07:45:13.515Z,77.15
2023-04-28T07:46:13.730Z,83.49
2023-04-28T07:47:13.836Z,84.74
2023-04-28T07:48:13.712Z,83.32
2023-04-28T07:49:13.762Z,110.44
2023-04-28T07:50:13.753Z,137.78
2023-04-28T07:51:13.829Z,138.65
2023-04-28T07:52:13.890Z,141.89
2023-04-28T07:53:14.631Z,141.52
2023-04-28T07:54:14.002Z,140.81
2023-04-28T07:55:14.072Z,140.43
2023-04-28T07:56:14.105Z,137.43
2023-04-28T07:57:14.330Z,135.95
2023-04-28T07:58:14.258Z,135.43
2023-04-28T07:59:14.316Z,134.95
2023-04-28T08:00:14.507Z,133.72
2023-04-28T08:01:14.451Z,134.54
2023-04-28T08:02:14.924Z,133.69
2023-04-28T08:03:14.770Z,131.32
2023-04-28T08:04:15.160Z,129.85
2023-04-28T08:05:15.086Z,130.74
2023-04-28T08:06:14.748Z,129.21
2023-04-28T08:07:14.836Z,128.45
2023-04-28T08:08:14.933Z,126.67
2023-04-28T08:09:14.952Z,125.62
2023-04-28T08:10:14.970Z,126.00
2023-04-28T08:11:15.040Z,124.49
2023-04-28T08:12:15.106Z,123.28
2023-04-28T08:13:15.090Z,122.07
2023-04-28T08:14:15.288Z,120.04
2023-04-28T08:15:16.619Z,119.62
2023-04-28T08:16:15.175Z,123.88
2023-04-28T08:17:15.351Z,121.78
2023-04-28T08:18:15.137Z,121.94
2023-04-28T08:19:15.118Z,122.27
2023-04-28T08:20:15.111Z,121.19
2023-04-28T08:21:15.113Z,119.51
2023-04-28T08:22:15.332Z,119.91
2023-04-28T08:23:15.080Z,117.86
2023-04-28T08:24:15.402Z,117.07
2023-04-28T08:25:15.050Z,116.24
2023-04-28T08:26:15.067Z,118.09
2023-04-28T08:27:15.059Z,117.85
2023-04-28T08:28:15.034Z,117.00
2023-04-28T08:29:15.025Z,116.30
2023-04-28T08:30:15.035Z,114.41
2023-04-28T08:31:15.053Z,114.99
2023-04-28T08:32:15.047Z,115.21
2023-04-28T08:33:15.085Z,114.14
2023-04-28T08:34:16.526Z,114.03
2023-04-28T08:35:14.988Z,115.08
2023-04-28T08:36:15.041Z,115.79
2023-04-28T08:37:14.999Z,114.47
2023-04-28T08:38:14.932Z,113.44
2023-04-28T08:39:14.968Z,115.09
2023-04-28T08:40:15.009Z,115.88
2023-04-28T08:41:14.939Z,113.51
2023-04-28T08:42:14.980Z,113.92
2023-04-28T08:43:15.940Z,114.31
2023-04-28T08:44:15.236Z,116.03
2023-04-28T08:45:14.905Z,118.59
2023-04-28T08:46:14.963Z,123.26
2023-04-28T08:47:14.958Z,132.51
2023-04-28T08:48:14.882Z,132.71
2023-04-28T08:49:14.881Z,132.51
2023-04-28T08:50:14.893Z,138.43
2023-04-28T08:51:14.869Z,142.28
2023-04-28T08:52:15.335Z,145.88
2023-04-28T08:53:14.827Z,148.39
2023-04-28T08:54:25.566Z,151.44
2023-04-28T08:55:15.867Z,151.62
2023-04-28T08:56:14.862Z,152.13
2023-04-28T08:57:15.372Z,152.76
2023-04-28T08:58:14.886Z,154.64
2023-04-28T08:59:14.879Z,156.06
2023-04-28T09:00:14.853Z,155.69
2023-04-28T09:01:14.861Z,153.07
2023-04-28T09:02:14.927Z,153.07
2023-04-28T09:03:14.929Z,153.08
2023-04-28T09:04:15.080Z,153.18
2023-04-28T09:05:15.158Z,154.22
2023-04-28T09:06:14.917Z,155.46
2023-04-28T09:07:14.938Z,154.97
2023-04-28T09:08:15.003Z,156.05
2023-04-28T09:09:15.115Z,154.83
2023-04-28T09:10:15.121Z,156.00
2023-04-28T09:11:15.168Z,155.56
2023-04-28T09:12:15.245Z,155.03
2023-04-28T09:13:15.290Z,155.16
2023-04-28T09:14:15.557Z,154.88
2023-04-28T09:15:15.442Z,155.06
2023-04-28T09:16:15.530Z,154.02
2023-04-28T09:17:15.553Z,154.73
2023-04-28T09:18:15.636Z,155.95
2023-04-28T09:19:15.668Z,155.51
2023-04-28T09:20:15.738Z,153.41
2023-04-28T09:21:15.796Z,154.95
2023-04-28T09:22:26.301Z,155.48
2023-04-28T09:23:16.841Z,155.57
2023-04-28T09:24:16.086Z,155.15
2023-04-28T09:25:15.797Z,154.63
2023-04-28T09:26:15.863Z,154.22
2023-04-28T09:27:15.838Z,153.63
2023-04-28T09:28:15.877Z,154.68
2023-04-28T09:29:15.803Z,154.40
2023-04-28T09:30:15.778Z,153.87
2023-04-28T09:31:15.760Z,153.60
2023-04-28T09:32:15.992Z,153.29
2023-04-28T09:33:15.925Z,154.84
2023-04-28T09:34:15.995Z,152.82
2023-04-28T09:35:15.765Z,154.08
2023-04-28T09:36:15.761Z,153.22
2023-04-28T09:37:15.742Z,152.24
2023-04-28T09:38:15.863Z,151.34
2023-04-28T09:39:15.759Z,151.10
2023-04-28T09:40:15.766Z,151.85
2023-04-28T09:41:15.763Z,151.06
2023-04-28T09:42:15.719Z,150.97
2023-04-28T09:43:21.886Z,151.07
2023-04-28T09:44:17.121Z,151.20
2023-04-28T09:45:15.680Z,151.41
2023-04-28T09:46:15.720Z,151.48
2023-04-28T09:47:15.711Z,150.59
2023-04-28T09:48:15.754Z,150.68
2023-04-28T09:49:15.697Z,149.14
2023-04-28T09:50:15.646Z,149.25
2023-04-28T09:51:15.617Z,149.65
2023-04-28T09:52:15.632Z,149.39
2023-04-28T09:53:15.632Z,148.45
2023-04-28T09:54:15.645Z,147.15
2023-04-28T09:55:15.631Z,148.41
2023-04-28T09:56:15.627Z,148.19
2023-04-28T09:57:15.617Z,148.25
2023-04-28T09:58:15.886Z,147.02
2023-04-28T09:59:15.589Z,147.06
2023-04-28T10:00:16.400Z,145.43
2023-04-28T10:01:15.596Z,145.28
2023-04-28T10:02:41.106Z,146.98
2023-04-28T10:03:16.660Z,147.05
2023-04-28T10:04:15.722Z,147.05
2023-04-28T10:05:15.747Z,147.14
2023-04-28T10:06:15.549Z,146.21
2023-04-28T10:07:15.517Z,144.77
2023-04-28T10:08:15.882Z,145.04
2023-04-28T10:09:15.523Z,145.21
2023-04-28T10:10:15.592Z,144.51
2023-04-28T10:11:15.503Z,144.20
2023-04-28T10:12:15.517Z,144.87
2023-04-28T10:13:15.501Z,144.87
2023-04-28T10:14:15.584Z,143.14
2023-04-28T10:15:15.446Z,142.99
2023-04-28T10:16:15.518Z,144.90
2023-04-28T10:17:15.459Z,142.72
2023-04-28T10:18:15.464Z,143.66
2023-04-28T10:19:15.450Z,141.16
2023-04-28T10:20:15.452Z,142.09
2023-04-28T10:21:15.417Z,141.64
2023-04-28T10:22:15.458Z,142.85
2023-04-28T10:23:15.389Z,141.51
2023-04-28T10:24:15.416Z,142.08
2023-04-28T10:25:15.407Z,141.16
2023-04-28T10:26:15.384Z,142.01
2023-04-28T10:27:15.393Z,139.85
2023-04-28T10:28:15.412Z,140.24
2023-04-28T10:29:15.385Z,140.21
2023-04-28T10:30:26.645Z,140.44
2023-04-28T10:31:16.396Z,140.57
2023-04-28T10:32:15.335Z,140.69
2023-04-28T10:33:15.352Z,140.63
2023-04-28T10:34:15.328Z,141.17
2023-04-28T10:35:15.329Z,139.44
2023-04-28T10:36:17.700Z,139.78
2023-04-28T10:37:15.348Z,139.87
2023-04-28T10:38:15.352Z,139.99
2023-04-28T10:39:15.366Z,140.12
2023-04-28T10:40:15.327Z,139.65
2023-04-28T10:41:15.323Z,138.86
2023-04-28T10:42:15.272Z,140.13
2023-04-28T10:43:15.286Z,138.44
2023-04-28T10:44:15.326Z,138.54
2023-04-28T10:45:15.267Z,138.66
2023-04-28T10:46:15.526Z,138.61
2023-04-28T10:47:15.285Z,138.32
2023-04-28T10:48:15.407Z,138.53
2023-04-28T10:49:15.238Z,138.52
2023-04-28T10:50:15.297Z,138.82
2023-04-28T10:51:15.258Z,138.42
2023-04-28T10:52:15.197Z,136.25
2023-04-28T10:53:15.221Z,136.01
2023-04-28T10:54:15.254Z,137.74
2023-04-28T10:55:22.137Z,136.33
2023-04-28T10:56:16.235Z,136.45
2023-04-28T10:57:15.169Z,136.60
2023-04-28T10:58:15.224Z,136.22
2023-04-28T10:59:15.162Z,136.22
2023-04-28T11:00:15.186Z,136.76
2023-04-28T11:01:15.228Z,136.16
2023-04-28T11:02:15.219Z,136.07
2023-04-28T11:03:15.252Z,136.07
2023-04-28T11:04:15.298Z,134.70
2023-04-28T11:05:15.309Z,133.91
2023-04-28T11:06:15.132Z,135.96
2023-04-28T11:07:15.122Z,134.95
2023-04-28T11:08:15.158Z,135.43
2023-04-28T11:09:15.251Z,134.91
2023-04-28T11:10:15.090Z,134.66
2023-04-28T11:11:15.094Z,132.90
2023-04-28T11:12:15.080Z,132.45
2023-04-28T11:13:15.082Z,133.79
2023-04-28T11:14:15.093Z,132.40
2023-04-28T11:15:15.066Z,132.37
2023-04-28T11:16:15.092Z,132.49
2023-04-28T11:17:15.039Z,132.09
2023-04-28T11:18:15.001Z,132.22
2023-04-28T11:19:14.989Z,133.06
2023-04-28T11:20:15.002Z,131.45
2023-04-28T11:21:15.008Z,132.88
2023-04-28T11:22:14.993Z,132.23
2023-04-28T11:23:15.048Z,134.14
2023-04-28T11:24:15.006Z,132.01
2023-04-28T11:25:15.024Z,132.21
2023-04-28T11:26:15.037Z,131.94
2023-04-28T11:27:15.035Z,129.95
2023-04-28T11:28:15.070Z,131.77
2023-04-28T11:29:15.059Z,130.58
2023-04-28T11:30:15.093Z,130.23
2023-04-28T11:31:15.143Z,130.61
2023-04-28T11:32:15.128Z,129.61
2023-04-28T11:33:15.164Z,130.21
2023-04-28T11:34:15.090Z,130.55
2023-04-28T11:35:15.118Z,131.86
2023-04-28T11:36:15.139Z,130.95
2023-04-28T11:37:15.544Z,129.26
2023-04-28T11:38:15.445Z,129.11
2023-04-28T11:39:15.187Z,130.72
2023-04-28T11:40:15.155Z,129.66
2023-04-28T11:41:15.187Z,129.75
2023-04-28T11:42:15.217Z,129.39
2023-04-28T11:43:15.241Z,129.63
2023-04-28T11:44:15.232Z,129.38
2023-04-28T11:45:15.231Z,130.07
2023-04-28T11:46:15.310Z,129.22
2023-04-28T11:47:15.262Z,127.65
2023-04-28T11:48:15.261Z,128.61
2023-04-28T11:49:15.349Z,127.15
2023-04-28T11:50:15.307Z,127.63
2023-04-28T11:51:15.288Z,124.97
2023-04-28T11:52:15.368Z,119.54
2023-04-28T11:53:15.336Z,113.96
2023-04-28T11:54:15.383Z,110.57
2023-04-28T11:55:15.394Z,98.02
2023-04-28T11:56:15.452Z,89.34
2023-04-28T11:57:15.487Z,81.68
2023-04-28T11:58:15.544Z,106.76
2023-04-28T11:59:15.573Z,110.90
2023-04-28T12:00:15.622Z,112.42
2023-04-28T12:01:15.689Z,98.41
2023-04-28T12:02:15.765Z,77.72
2023-04-28T12:03:16.107Z,59.81
2023-04-28T12:04:15.931Z,51.49
2023-04-28T12:05:15.885Z,45.30
2023-04-28T12:06:15.805Z,42.66
2023-04-28T12:07:15.830Z,42.64
2023-04-28T12:08:15.798Z,41.63
2023-04-28T12:09:15.816Z,39.98
2023-04-28T12:10:16.021Z,36.61
2023-04-28T12:11:16.654Z,29.95
2023-04-28T12:12:17.245Z,31.68
2023-04-28T12:13:15.952Z,31.09
2023-04-28T12:14:15.946Z,26.01
2023-04-28T12:15:17.034Z,25.26
2023-04-28T12:16:16.079Z,34.52
2023-04-28T12:17:16.044Z,39.97
2023-04-28T12:18:16.086Z,39.77
2023-04-28T12:19:16.124Z,38.00
2023-04-28T12:20:16.101Z,39.31
2023-04-28T12:21:16.170Z,32.29
2023-04-28T12:22:16.205Z,32.04
2023-04-28T12:23:16.466Z,31.05
2023-04-28T12:24:16.309Z,27.85
2023-04-28T12:25:16.322Z,26.61
2023-04-28T12:26:16.369Z,27.56
2023-04-28T12:27:16.441Z,25.34
2023-04-28T12:28:16.542Z,26.26
2023-04-28T12:29:16.577Z,27.19
2023-04-28T12:30:16.634Z,25.92
2023-04-28T12:31:16.757Z,26.13